sensor_id;sensor_type;location;lat;lon;timestamp;P1;durP1;ratioP1;P2;durP2;ratioP2
15677;SDS011;7939;50.814;6.368;2023-08-08T00:00:35;2.95;;;1.83;;
15677;SDS011;7939;50.814;6.368;2023-08-08T00:03:02;1.77;;;1.67;;
15677;SDS011;7939;50.814;6.368;2023-08-08T00:05:29;2.78;;;2.28;;
15677;SDS011;7939;50.814;6.368;2023-08-08T00:07:56;3.70;;;1.70;;
15677;SDS011;7939;50.814;6.368;2023-08-08T00:10:23;3.30;;;2.22;;
15677;SDS011;7939;50.814;6.368;2023-08-08T00:12:50;2.15;;;1.95;;
15677;SDS011;7939;50.814;6.368;2023-08-08T00:15:16;4.35;;;2.00;;
15677;SDS011;7939;50.814;6.368;2023-08-08T00:17:43;2.28;;;1.63;;
15677;SDS011;7939;50.814;6.368;2023-08-08T00:20:10;2.78;;;1.63;;
15677;SDS011;7939;50.814;6.368;2023-08-08T00:22:37;5.15;;;1.70;;
15677;SDS011;7939;50.814;6.368;2023-08-08T00:25:03;1.80;;;1.67;;
15677;SDS011;7939;50.814;6.368;2023-08-08T00:27:32;3.55;;;1.77;;
15677;SDS011;7939;50.814;6.368;2023-08-08T00:29:59;2.25;;;1.75;;
15677;SDS011;7939;50.814;6.368;2023-08-08T00:32:25;2.50;;;1.90;;
15677;SDS011;7939;50.814;6.368;2023-08-08T00:34:52;4.03;;;1.88;;
15677;SDS011;7939;50.814;6.368;2023-08-08T00:37:18;2.60;;;1.60;;
15677;SDS011;7939;50.814;6.368;2023-08-08T00:39:45;2.15;;;1.95;;
15677;SDS011;7939;50.814;6.368;2023-08-08T00:42:12;2.78;;;1.83;;
15677;SDS011;7939;50.814;6.368;2023-08-08T00:44:40;3.50;;;1.88;;
15677;SDS011;7939;50.814;6.368;2023-08-08T00:47:06;4.10;;;1.90;;
15677;SDS011;7939;50.814;6.368;2023-08-08T00:49:33;1.58;;;1.48;;
15677;SDS011;7939;50.814;6.368;2023-08-08T00:52:00;2.97;;;2.03;;
15677;SDS011;7939;50.814;6.368;2023-08-08T00:54:27;4.13;;;2.15;;
15677;SDS011;7939;50.814;6.368;2023-08-08T00:56:54;2.55;;;1.85;;
15677;SDS011;7939;50.814;6.368;2023-08-08T00:59:21;2.17;;;1.85;;
15677;SDS011;7939;50.814;6.368;2023-08-08T01:01:50;4.65;;;1.95;;
15677;SDS011;7939;50.814;6.368;2023-08-08T01:04:17;2.70;;;1.63;;
15677;SDS011;7939;50.814;6.368;2023-08-08T01:06:47;2.60;;;1.90;;
15677;SDS011;7939;50.814;6.368;2023-08-08T01:09:21;3.55;;;2.00;;
15677;SDS011;7939;50.814;6.368;2023-08-08T01:11:51;3.58;;;1.98;;
15677;SDS011;7939;50.814;6.368;2023-08-08T01:14:19;2.67;;;1.67;;
15677;SDS011;7939;50.814;6.368;2023-08-08T01:16:51;2.35;;;2.10;;
15677;SDS011;7939;50.814;6.368;2023-08-08T01:19:23;3.60;;;1.90;;
15677;SDS011;7939;50.814;6.368;2023-08-08T01:21:53;2.67;;;1.70;;
15677;SDS011;7939;50.814;6.368;2023-08-08T01:24:22;3.50;;;1.90;;
15677;SDS011;7939;50.814;6.368;2023-08-08T01:26:51;1.60;;;1.50;;
15677;SDS011;7939;50.814;6.368;2023-08-08T01:29:18;2.20;;;1.90;;
15677;SDS011;7939;50.814;6.368;2023-08-08T01:31:45;3.40;;;1.80;;
15677;SDS011;7939;50.814;6.368;2023-08-08T01:34:11;4.30;;;2.00;;
15677;SDS011;7939;50.814;6.368;2023-08-08T01:36:40;5.18;;;2.08;;
15677;SDS011;7939;50.814;6.368;2023-08-08T01:39:13;3.70;;;1.77;;
15677;SDS011;7939;50.814;6.368;2023-08-08T01:41:44;2.20;;;1.80;;
15677;SDS011;7939;50.814;6.368;2023-08-08T01:44:13;3.72;;;2.35;;
15677;SDS011;7939;50.814;6.368;2023-08-08T01:46:40;4.05;;;2.30;;
15677;SDS011;7939;50.814;6.368;2023-08-08T01:49:07;3.25;;;2.00;;
15677;SDS011;7939;50.814;6.368;2023-08-08T01:51:33;2.22;;;2.00;;
15677;SDS011;7939;50.814;6.368;2023-08-08T01:54:00;2.05;;;1.60;;
15677;SDS011;7939;50.814;6.368;2023-08-08T01:56:27;4.28;;;1.58;;
15677;SDS011;7939;50.814;6.368;2023-08-08T01:58:55;1.80;;;1.60;;
15677;SDS011;7939;50.814;6.368;2023-08-08T02:01:21;3.20;;;1.88;;
15677;SDS011;7939;50.814;6.368;2023-08-08T02:03:48;2.63;;;1.58;;
15677;SDS011;7939;50.814;6.368;2023-08-08T02:06:15;2.60;;;1.60;;
15677;SDS011;7939;50.814;6.368;2023-08-08T02:08:41;4.40;;;1.75;;
15677;SDS011;7939;50.814;6.368;2023-08-08T02:11:08;3.00;;;2.10;;
15677;SDS011;7939;50.814;6.368;2023-08-08T02:13:34;1.85;;;1.40;;
15677;SDS011;7939;50.814;6.368;2023-08-08T02:16:02;1.80;;;1.50;;
15677;SDS011;7939;50.814;6.368;2023-08-08T02:18:29;3.58;;;1.73;;
15677;SDS011;7939;50.814;6.368;2023-08-08T02:20:55;3.20;;;1.73;;
15677;SDS011;7939;50.814;6.368;2023-08-08T02:23:22;3.10;;;1.67;;
15677;SDS011;7939;50.814;6.368;2023-08-08T02:25:49;1.52;;;1.30;;
15677;SDS011;7939;50.814;6.368;2023-08-08T02:28:15;3.55;;;1.80;;
15677;SDS011;7939;50.814;6.368;2023-08-08T02:30:42;5.13;;;1.92;;
15677;SDS011;7939;50.814;6.368;2023-08-08T02:33:10;2.55;;;1.60;;
15677;SDS011;7939;50.814;6.368;2023-08-08T02:35:36;1.92;;;1.73;;
15677;SDS011;7939;50.814;6.368;2023-08-08T02:38:03;3.33;;;1.67;;
15677;SDS011;7939;50.814;6.368;2023-08-08T02:40:30;3.95;;;1.75;;
15677;SDS011;7939;50.814;6.368;2023-08-08T02:42:58;3.33;;;1.70;;
15677;SDS011;7939;50.814;6.368;2023-08-08T02:45:24;3.35;;;1.98;;
15677;SDS011;7939;50.814;6.368;2023-08-08T02:47:51;1.90;;;1.42;;
15677;SDS011;7939;50.814;6.368;2023-08-08T02:50:19;1.98;;;1.88;;
15677;SDS011;7939;50.814;6.368;2023-08-08T02:52:45;2.42;;;1.77;;
15677;SDS011;7939;50.814;6.368;2023-08-08T02:55:12;3.05;;;1.80;;
15677;SDS011;7939;50.814;6.368;2023-08-08T02:57:39;6.68;;;2.00;;
15677;SDS011;7939;50.814;6.368;2023-08-08T03:00:06;2.60;;;2.03;;
15677;SDS011;7939;50.814;6.368;2023-08-08T03:02:34;3.80;;;1.75;;
15677;SDS011;7939;50.814;6.368;2023-08-08T03:05:01;3.17;;;1.85;;
15677;SDS011;7939;50.814;6.368;2023-08-08T03:07:29;5.60;;;1.90;;
15677;SDS011;7939;50.814;6.368;2023-08-08T03:09:56;4.47;;;1.60;;
15677;SDS011;7939;50.814;6.368;2023-08-08T03:12:22;4.30;;;1.90;;
15677;SDS011;7939;50.814;6.368;2023-08-08T03:14:49;3.75;;;1.83;;
15677;SDS011;7939;50.814;6.368;2023-08-08T03:17:16;4.90;;;1.67;;
15677;SDS011;7939;50.814;6.368;2023-08-08T03:19:43;2.97;;;1.48;;
15677;SDS011;7939;50.814;6.368;2023-08-08T03:22:10;3.00;;;1.67;;
15677;SDS011;7939;50.814;6.368;2023-08-08T03:24:37;3.08;;;1.73;;
15677;SDS011;7939;50.814;6.368;2023-08-08T03:27:04;4.63;;;1.80;;
15677;SDS011;7939;50.814;6.368;2023-08-08T03:29:30;2.70;;;2.00;;
15677;SDS011;7939;50.814;6.368;2023-08-08T03:31:57;1.63;;;1.50;;
15677;SDS011;7939;50.814;6.368;2023-08-08T03:34:23;4.13;;;1.70;;
15677;SDS011;7939;50.814;6.368;2023-08-08T03:36:50;4.32;;;2.03;;
15677;SDS011;7939;50.814;6.368;2023-08-08T03:39:16;2.65;;;1.55;;
15677;SDS011;7939;50.814;6.368;2023-08-08T03:41:44;3.17;;;1.30;;
15677;SDS011;7939;50.814;6.368;2023-08-08T03:44:11;2.58;;;2.00;;
15677;SDS011;7939;50.814;6.368;2023-08-08T03:46:38;3.53;;;1.90;;
15677;SDS011;7939;50.814;6.368;2023-08-08T03:49:05;3.30;;;2.03;;
15677;SDS011;7939;50.814;6.368;2023-08-08T03:51:31;3.30;;;1.67;;
15677;SDS011;7939;50.814;6.368;2023-08-08T03:53:58;2.97;;;2.05;;
15677;SDS011;7939;50.814;6.368;2023-08-08T03:56:24;4.65;;;2.20;;
15677;SDS011;7939;50.814;6.368;2023-08-08T03:58:54;5.32;;;2.10;;
15677;SDS011;7939;50.814;6.368;2023-08-08T04:01:21;3.55;;;2.08;;
15677;SDS011;7939;50.814;6.368;2023-08-08T04:03:49;4.78;;;1.92;;
15677;SDS011;7939;50.814;6.368;2023-08-08T04:06:15;4.13;;;2.30;;
15677;SDS011;7939;50.814;6.368;2023-08-08T04:08:42;7.55;;;2.80;;
15677;SDS011;7939;50.814;6.368;2023-08-08T04:11:08;4.43;;;2.65;;
15677;SDS011;7939;50.814;6.368;2023-08-08T04:13:35;6.50;;;2.30;;
15677;SDS011;7939;50.814;6.368;2023-08-08T04:16:03;8.27;;;2.97;;
15677;SDS011;7939;50.814;6.368;2023-08-08T04:18:30;3.92;;;2.95;;
15677;SDS011;7939;50.814;6.368;2023-08-08T04:20:56;6.07;;;2.80;;
15677;SDS011;7939;50.814;6.368;2023-08-08T04:23:23;6.75;;;3.08;;
15677;SDS011;7939;50.814;6.368;2023-08-08T04:25:51;3.25;;;2.58;;
15677;SDS011;7939;50.814;6.368;2023-08-08T04:28:17;5.38;;;2.47;;
15677;SDS011;7939;50.814;6.368;2023-08-08T04:30:44;3.53;;;2.42;;
15677;SDS011;7939;50.814;6.368;2023-08-08T04:33:12;8.80;;;4.00;;
15677;SDS011;7939;50.814;6.368;2023-08-08T04:35:38;5.22;;;2.97;;
15677;SDS011;7939;50.814;6.368;2023-08-08T04:38:05;6.20;;;2.88;;
15677;SDS011;7939;50.814;6.368;2023-08-08T04:40:31;8.10;;;2.72;;
15677;SDS011;7939;50.814;6.368;2023-08-08T04:42:58;5.30;;;3.25;;
15677;SDS011;7939;50.814;6.368;2023-08-08T04:45:25;7.85;;;2.63;;
15677;SDS011;7939;50.814;6.368;2023-08-08T04:47:52;5.45;;;2.80;;
15677;SDS011;7939;50.814;6.368;2023-08-08T04:50:20;4.95;;;2.55;;
15677;SDS011;7939;50.814;6.368;2023-08-08T04:52:46;7.07;;;2.55;;
15677;SDS011;7939;50.814;6.368;2023-08-08T04:55:13;8.25;;;2.88;;
15677;SDS011;7939;50.814;6.368;2023-08-08T04:57:39;4.75;;;2.88;;
15677;SDS011;7939;50.814;6.368;2023-08-08T05:00:07;6.88;;;2.50;;
15677;SDS011;7939;50.814;6.368;2023-08-08T05:02:34;7.72;;;2.92;;
15677;SDS011;7939;50.814;6.368;2023-08-08T05:05:01;3.58;;;2.60;;
15677;SDS011;7939;50.814;6.368;2023-08-08T05:07:29;5.78;;;3.50;;
15677;SDS011;7939;50.814;6.368;2023-08-08T05:09:56;6.30;;;3.15;;
15677;SDS011;7939;50.814;6.368;2023-08-08T05:12:22;5.78;;;3.03;;
15677;SDS011;7939;50.814;6.368;2023-08-08T05:14:49;8.30;;;3.10;;
15677;SDS011;7939;50.814;6.368;2023-08-08T05:17:16;5.30;;;3.15;;
15677;SDS011;7939;50.814;6.368;2023-08-08T05:19:42;9.38;;;3.22;;
15677;SDS011;7939;50.814;6.368;2023-08-08T05:22:09;7.88;;;3.20;;
15677;SDS011;7939;50.814;6.368;2023-08-08T05:24:37;7.13;;;3.55;;
15677;SDS011;7939;50.814;6.368;2023-08-08T05:27:04;6.95;;;3.50;;
15677;SDS011;7939;50.814;6.368;2023-08-08T05:29:31;4.93;;;2.97;;
15677;SDS011;7939;50.814;6.368;2023-08-08T05:31:57;5.78;;;3.22;;
15677;SDS011;7939;50.814;6.368;2023-08-08T05:34:24;5.82;;;3.03;;
15677;SDS011;7939;50.814;6.368;2023-08-08T05:36:51;7.60;;;3.70;;
15677;SDS011;7939;50.814;6.368;2023-08-08T05:39:18;6.32;;;3.13;;
15677;SDS011;7939;50.814;6.368;2023-08-08T05:41:45;6.32;;;3.10;;
15677;SDS011;7939;50.814;6.368;2023-08-08T05:44:12;5.50;;;3.22;;
15677;SDS011;7939;50.814;6.368;2023-08-08T05:46:39;5.45;;;3.00;;
15677;SDS011;7939;50.814;6.368;2023-08-08T05:49:05;7.72;;;3.13;;
15677;SDS011;7939;50.814;6.368;2023-08-08T05:51:32;10.07;;;2.95;;
15677;SDS011;7939;50.814;6.368;2023-08-08T05:53:58;4.63;;;2.70;;
15677;SDS011;7939;50.814;6.368;2023-08-08T05:56:27;5.65;;;2.63;;
15677;SDS011;7939;50.814;6.368;2023-08-08T05:58:55;6.93;;;2.92;;
15677;SDS011;7939;50.814;6.368;2023-08-08T06:01:22;4.45;;;2.85;;
15677;SDS011;7939;50.814;6.368;2023-08-08T06:03:48;6.40;;;2.97;;
15677;SDS011;7939;50.814;6.368;2023-08-08T06:06:15;6.70;;;2.78;;
15677;SDS011;7939;50.814;6.368;2023-08-08T06:08:42;8.45;;;3.10;;
15677;SDS011;7939;50.814;6.368;2023-08-08T06:11:08;7.68;;;2.88;;
15677;SDS011;7939;50.814;6.368;2023-08-08T06:13:35;5.85;;;2.70;;
15677;SDS011;7939;50.814;6.368;2023-08-08T06:16:04;6.88;;;2.72;;
15677;SDS011;7939;50.814;6.368;2023-08-08T06:18:31;4.78;;;2.50;;
15677;SDS011;7939;50.814;6.368;2023-08-08T06:20:58;5.88;;;2.80;;
15677;SDS011;7939;50.814;6.368;2023-08-08T06:23:25;6.68;;;2.60;;
15677;SDS011;7939;50.814;6.368;2023-08-08T06:25:51;4.55;;;2.40;;
15677;SDS011;7939;50.814;6.368;2023-08-08T06:28:18;5.10;;;2.72;;
15677;SDS011;7939;50.814;6.368;2023-08-08T06:30:45;8.23;;;3.03;;
15677;SDS011;7939;50.814;6.368;2023-08-08T06:33:13;4.88;;;2.92;;
15677;SDS011;7939;50.814;6.368;2023-08-08T06:35:39;5.20;;;2.83;;
15677;SDS011;7939;50.814;6.368;2023-08-08T06:38:06;4.90;;;3.13;;
15677;SDS011;7939;50.814;6.368;2023-08-08T06:40:33;7.07;;;3.00;;
15677;SDS011;7939;50.814;6.368;2023-08-08T06:43:00;7.95;;;3.50;;
15677;SDS011;7939;50.814;6.368;2023-08-08T06:45:27;7.30;;;3.25;;
15677;SDS011;7939;50.814;6.368;2023-08-08T06:47:53;7.57;;;4.18;;
15677;SDS011;7939;50.814;6.368;2023-08-08T06:50:21;7.32;;;3.53;;
15677;SDS011;7939;50.814;6.368;2023-08-08T06:52:49;7.03;;;3.80;;
15677;SDS011;7939;50.814;6.368;2023-08-08T06:55:16;5.20;;;3.20;;
15677;SDS011;7939;50.814;6.368;2023-08-08T06:57:42;8.93;;;4.22;;
15677;SDS011;7939;50.814;6.368;2023-08-08T07:00:10;7.95;;;3.97;;
15677;SDS011;7939;50.814;6.368;2023-08-08T07:02:38;6.85;;;3.88;;
15677;SDS011;7939;50.814;6.368;2023-08-08T07:05:06;6.18;;;3.88;;
15677;SDS011;7939;50.814;6.368;2023-08-08T07:07:36;6.13;;;3.70;;
15677;SDS011;7939;50.814;6.368;2023-08-08T07:10:03;6.35;;;4.00;;
15677;SDS011;7939;50.814;6.368;2023-08-08T07:12:31;8.05;;;4.43;;
15677;SDS011;7939;50.814;6.368;2023-08-08T07:14:58;9.25;;;4.38;;
15677;SDS011;7939;50.814;6.368;2023-08-08T07:17:24;8.50;;;4.35;;
15677;SDS011;7939;50.814;6.368;2023-08-08T07:19:51;7.10;;;4.72;;
15677;SDS011;7939;50.814;6.368;2023-08-08T07:22:18;9.00;;;4.38;;
15677;SDS011;7939;50.814;6.368;2023-08-08T07:24:46;8.35;;;4.53;;
15677;SDS011;7939;50.814;6.368;2023-08-08T07:27:12;8.18;;;4.13;;
15677;SDS011;7939;50.814;6.368;2023-08-08T07:29:39;8.95;;;5.15;;
15677;SDS011;7939;50.814;6.368;2023-08-08T07:32:05;7.65;;;4.65;;
15677;SDS011;7939;50.814;6.368;2023-08-08T07:34:32;9.57;;;4.93;;
15677;SDS011;7939;50.814;6.368;2023-08-08T07:36:59;9.25;;;4.40;;
15677;SDS011;7939;50.814;6.368;2023-08-08T07:39:25;7.55;;;4.13;;
15677;SDS011;7939;50.814;6.368;2023-08-08T07:41:54;6.93;;;4.30;;
15677;SDS011;7939;50.814;6.368;2023-08-08T07:44:20;4.47;;;4.03;;
15677;SDS011;7939;50.814;6.368;2023-08-08T07:46:47;6.07;;;4.32;;
15677;SDS011;7939;50.814;6.368;2023-08-08T07:49:14;8.52;;;4.72;;
15677;SDS011;7939;50.814;6.368;2023-08-08T07:51:40;7.47;;;4.28;;
15677;SDS011;7939;50.814;6.368;2023-08-08T07:54:07;7.25;;;4.35;;
15677;SDS011;7939;50.814;6.368;2023-08-08T07:56:35;7.68;;;4.53;;
15677;SDS011;7939;50.814;6.368;2023-08-08T07:59:04;8.02;;;4.22;;
15677;SDS011;7939;50.814;6.368;2023-08-08T08:01:31;5.32;;;4.30;;
15677;SDS011;7939;50.814;6.368;2023-08-08T08:03:57;7.88;;;4.60;;
15677;SDS011;7939;50.814;6.368;2023-08-08T08:06:24;7.10;;;4.70;;
15677;SDS011;7939;50.814;6.368;2023-08-08T08:08:50;6.68;;;3.80;;
15677;SDS011;7939;50.814;6.368;2023-08-08T08:11:17;5.05;;;3.80;;
15677;SDS011;7939;50.814;6.368;2023-08-08T08:13:44;4.88;;;3.90;;
15677;SDS011;7939;50.814;6.368;2023-08-08T08:16:12;5.35;;;3.60;;
15677;SDS011;7939;50.814;6.368;2023-08-08T08:18:38;9.37;;;4.50;;
15677;SDS011;7939;50.814;6.368;2023-08-08T08:21:05;4.68;;;3.80;;
15677;SDS011;7939;50.814;6.368;2023-08-08T08:23:31;6.03;;;4.03;;
15677;SDS011;7939;50.814;6.368;2023-08-08T08:25:58;7.00;;;3.75;;
15677;SDS011;7939;50.814;6.368;2023-08-08T08:28:25;7.43;;;3.50;;
15677;SDS011;7939;50.814;6.368;2023-08-08T08:30:51;7.35;;;3.67;;
15677;SDS011;7939;50.814;6.368;2023-08-08T08:33:20;5.53;;;4.45;;
15677;SDS011;7939;50.814;6.368;2023-08-08T08:35:46;5.25;;;3.13;;
15677;SDS011;7939;50.814;6.368;2023-08-08T08:38:13;8.98;;;3.75;;
15677;SDS011;7939;50.814;6.368;2023-08-08T08:40:40;5.30;;;3.50;;
15677;SDS011;7939;50.814;6.368;2023-08-08T08:43:09;6.68;;;3.30;;
15677;SDS011;7939;50.814;6.368;2023-08-08T08:45:37;5.38;;;3.17;;
15677;SDS011;7939;50.814;6.368;2023-08-08T08:48:06;6.35;;;2.83;;
15677;SDS011;7939;50.814;6.368;2023-08-08T08:50:37;5.50;;;2.75;;
15677;SDS011;7939;50.814;6.368;2023-08-08T08:53:05;4.93;;;2.80;;
15677;SDS011;7939;50.814;6.368;2023-08-08T08:55:33;4.25;;;2.45;;
15677;SDS011;7939;50.814;6.368;2023-08-08T08:57:59;4.85;;;2.47;;
15677;SDS011;7939;50.814;6.368;2023-08-08T09:00:26;6.13;;;2.80;;
15677;SDS011;7939;50.814;6.368;2023-08-08T09:02:53;4.38;;;2.67;;
15677;SDS011;7939;50.814;6.368;2023-08-08T09:05:21;6.05;;;3.22;;
15677;SDS011;7939;50.814;6.368;2023-08-08T09:07:52;8.43;;;3.25;;
15677;SDS011;7939;50.814;6.368;2023-08-08T09:10:18;4.32;;;2.50;;
15677;SDS011;7939;50.814;6.368;2023-08-08T09:12:46;3.22;;;2.85;;
15677;SDS011;7939;50.814;6.368;2023-08-08T09:15:14;5.38;;;3.10;;
15677;SDS011;7939;50.814;6.368;2023-08-08T09:17:41;6.65;;;2.72;;
15677;SDS011;7939;50.814;6.368;2023-08-08T09:20:09;5.40;;;3.23;;
15677;SDS011;7939;50.814;6.368;2023-08-08T09:22:37;5.18;;;3.20;;
15677;SDS011;7939;50.814;6.368;2023-08-08T09:25:06;6.20;;;2.60;;
15677;SDS011;7939;50.814;6.368;2023-08-08T09:27:33;4.40;;;2.33;;
15677;SDS011;7939;50.814;6.368;2023-08-08T09:30:00;6.80;;;2.38;;
15677;SDS011;7939;50.814;6.368;2023-08-08T09:32:28;4.78;;;2.60;;
15677;SDS011;7939;50.814;6.368;2023-08-08T09:34:55;4.53;;;2.50;;
15677;SDS011;7939;50.814;6.368;2023-08-08T09:37:22;12.40;;;2.67;;
15677;SDS011;7939;50.814;6.368;2023-08-08T09:39:55;4.82;;;2.10;;
15677;SDS011;7939;50.814;6.368;2023-08-08T09:42:24;4.68;;;2.20;;
15677;SDS011;7939;50.814;6.368;2023-08-08T09:44:53;4.60;;;2.38;;
15677;SDS011;7939;50.814;6.368;2023-08-08T09:47:20;3.20;;;2.50;;
15677;SDS011;7939;50.814;6.368;2023-08-08T09:49:47;5.40;;;2.55;;
15677;SDS011;7939;50.814;6.368;2023-08-08T09:52:14;4.70;;;2.60;;
15677;SDS011;7939;50.814;6.368;2023-08-08T09:54:41;4.63;;;2.03;;
15677;SDS011;7939;50.814;6.368;2023-08-08T09:57:09;2.78;;;1.92;;
15677;SDS011;7939;50.814;6.368;2023-08-08T09:59:37;4.30;;;2.03;;
15677;SDS011;7939;50.814;6.368;2023-08-08T10:02:04;3.13;;;1.80;;
15677;SDS011;7939;50.814;6.368;2023-08-08T10:04:31;2.97;;;1.90;;
15677;SDS011;7939;50.814;6.368;2023-08-08T10:06:59;7.00;;;2.20;;
15677;SDS011;7939;50.814;6.368;2023-08-08T10:09:25;5.90;;;2.13;;
15677;SDS011;7939;50.814;6.368;2023-08-08T10:11:52;6.88;;;2.33;;
15677;SDS011;7939;50.814;6.368;2023-08-08T10:14:27;4.22;;;1.83;;
15677;SDS011;7939;50.814;6.368;2023-08-08T10:16:56;6.85;;;2.28;;
15677;SDS011;7939;50.814;6.368;2023-08-08T10:19:23;3.72;;;1.95;;
15677;SDS011;7939;50.814;6.368;2023-08-08T10:21:55;3.78;;;2.05;;
15677;SDS011;7939;50.814;6.368;2023-08-08T10:24:23;4.00;;;2.00;;
15677;SDS011;7939;50.814;6.368;2023-08-08T10:26:53;4.18;;;1.73;;
15677;SDS011;7939;50.814;6.368;2023-08-08T10:29:24;3.35;;;1.80;;
15677;SDS011;7939;50.814;6.368;2023-08-08T10:31:51;5.13;;;2.13;;
15677;SDS011;7939;50.814;6.368;2023-08-08T10:34:20;4.38;;;2.00;;
15677;SDS011;7939;50.814;6.368;2023-08-08T10:36:51;4.53;;;2.00;;
15677;SDS011;7939;50.814;6.368;2023-08-08T10:39:19;4.05;;;2.13;;
15677;SDS011;7939;50.814;6.368;2023-08-08T10:41:47;4.57;;;2.00;;
15677;SDS011;7939;50.814;6.368;2023-08-08T10:44:21;6.07;;;2.25;;
15677;SDS011;7939;50.814;6.368;2023-08-08T10:46:49;3.63;;;1.80;;
15677;SDS011;7939;50.814;6.368;2023-08-08T10:49:17;2.35;;;1.75;;
15677;SDS011;7939;50.814;6.368;2023-08-08T10:51:45;3.05;;;1.95;;
15677;SDS011;7939;50.814;6.368;2023-08-08T10:54:13;4.22;;;1.67;;
15677;SDS011;7939;50.814;6.368;2023-08-08T10:56:47;4.78;;;1.92;;
15677;SDS011;7939;50.814;6.368;2023-08-08T10:59:15;6.20;;;1.85;;
15677;SDS011;7939;50.814;6.368;2023-08-08T11:01:44;4.38;;;2.30;;
15677;SDS011;7939;50.814;6.368;2023-08-08T11:04:12;5.63;;;1.77;;
15677;SDS011;7939;50.814;6.368;2023-08-08T11:06:39;4.70;;;1.80;;
15677;SDS011;7939;50.814;6.368;2023-08-08T11:09:08;4.75;;;1.67;;
15677;SDS011;7939;50.814;6.368;2023-08-08T11:11:38;2.80;;;1.70;;
15677;SDS011;7939;50.814;6.368;2023-08-08T11:14:09;2.72;;;1.80;;
15677;SDS011;7939;50.814;6.368;2023-08-08T11:16:36;3.92;;;1.80;;
15677;SDS011;7939;50.814;6.368;2023-08-08T11:19:03;4.25;;;1.88;;
15677;SDS011;7939;50.814;6.368;2023-08-08T11:21:29;2.13;;;1.90;;
15677;SDS011;7939;50.814;6.368;2023-08-08T11:24:00;5.15;;;1.83;;
15677;SDS011;7939;50.814;6.368;2023-08-08T11:26:28;3.90;;;1.77;;
15677;SDS011;7939;50.814;6.368;2023-08-08T11:28:57;3.63;;;1.80;;
15677;SDS011;7939;50.814;6.368;2023-08-08T11:31:23;2.60;;;1.52;;
15677;SDS011;7939;50.814;6.368;2023-08-08T11:33:50;4.78;;;1.67;;
15677;SDS011;7939;50.814;6.368;2023-08-08T11:36:19;4.57;;;1.77;;
15677;SDS011;7939;50.814;6.368;2023-08-08T11:38:46;4.53;;;1.60;;
15677;SDS011;7939;50.814;6.368;2023-08-08T11:41:14;2.33;;;1.55;;
15677;SDS011;7939;50.814;6.368;2023-08-08T11:43:44;3.30;;;1.55;;
15677;SDS011;7939;50.814;6.368;2023-08-08T11:46:11;5.05;;;1.75;;
15677;SDS011;7939;50.814;6.368;2023-08-08T11:48:38;3.17;;;1.60;;
15677;SDS011;7939;50.814;6.368;2023-08-08T11:51:05;3.75;;;1.92;;
15677;SDS011;7939;50.814;6.368;2023-08-08T11:53:32;3.63;;;1.85;;
15677;SDS011;7939;50.814;6.368;2023-08-08T11:55:58;2.58;;;1.60;;
15677;SDS011;7939;50.814;6.368;2023-08-08T11:58:26;7.10;;;1.90;;
15677;SDS011;7939;50.814;6.368;2023-08-08T12:00:54;5.25;;;1.83;;
15677;SDS011;7939;50.814;6.368;2023-08-08T12:03:24;3.78;;;1.80;;
15677;SDS011;7939;50.814;6.368;2023-08-08T12:05:51;4.93;;;1.75;;
15677;SDS011;7939;50.814;6.368;2023-08-08T12:08:18;4.72;;;1.58;;
15677;SDS011;7939;50.814;6.368;2023-08-08T12:10:47;4.50;;;1.83;;
15677;SDS011;7939;50.814;6.368;2023-08-08T12:13:19;6.43;;;1.80;;
15677;SDS011;7939;50.814;6.368;2023-08-08T12:15:46;2.88;;;1.50;;
15677;SDS011;7939;50.814;6.368;2023-08-08T12:18:17;9.25;;;2.58;;
15677;SDS011;7939;50.814;6.368;2023-08-08T12:20:44;4.28;;;1.58;;
15677;SDS011;7939;50.814;6.368;2023-08-08T12:23:12;5.55;;;1.75;;
15677;SDS011;7939;50.814;6.368;2023-08-08T12:25:39;5.65;;;1.88;;
15677;SDS011;7939;50.814;6.368;2023-08-08T12:28:05;3.83;;;1.70;;
15677;SDS011;7939;50.814;6.368;2023-08-08T12:30:32;4.15;;;1.52;;
15677;SDS011;7939;50.814;6.368;2023-08-08T12:32:59;4.13;;;1.55;;
15677;SDS011;7939;50.814;6.368;2023-08-08T12:35:27;6.72;;;1.90;;
15677;SDS011;7939;50.814;6.368;2023-08-08T12:37:53;3.85;;;1.40;;
15677;SDS011;7939;50.814;6.368;2023-08-08T12:40:20;4.45;;;1.70;;
15677;SDS011;7939;50.814;6.368;2023-08-08T12:42:46;1.90;;;1.40;;
15677;SDS011;7939;50.814;6.368;2023-08-08T12:45:13;3.67;;;1.67;;
15677;SDS011;7939;50.814;6.368;2023-08-08T12:47:40;5.57;;;1.45;;
15677;SDS011;7939;50.814;6.368;2023-08-08T12:50:06;2.92;;;1.38;;
15677;SDS011;7939;50.814;6.368;2023-08-08T12:52:35;3.45;;;1.60;;
15677;SDS011;7939;50.814;6.368;2023-08-08T12:55:03;4.60;;;1.73;;
15677;SDS011;7939;50.814;6.368;2023-08-08T12:57:31;4.47;;;1.98;;
15677;SDS011;7939;50.814;6.368;2023-08-08T12:59:57;3.08;;;1.63;;
15677;SDS011;7939;50.814;6.368;2023-08-08T13:02:24;3.00;;;1.55;;
15677;SDS011;7939;50.814;6.368;2023-08-08T13:04:50;3.42;;;1.70;;
15677;SDS011;7939;50.814;6.368;2023-08-08T13:07:17;4.78;;;1.35;;
15677;SDS011;7939;50.814;6.368;2023-08-08T13:09:45;4.40;;;1.80;;
15677;SDS011;7939;50.814;6.368;2023-08-08T13:12:12;2.40;;;1.63;;
15677;SDS011;7939;50.814;6.368;2023-08-08T13:14:38;3.70;;;1.48;;
15677;SDS011;7939;50.814;6.368;2023-08-08T13:17:05;3.63;;;1.77;;
15677;SDS011;7939;50.814;6.368;2023-08-08T13:19:31;3.22;;;1.85;;
15677;SDS011;7939;50.814;6.368;2023-08-08T13:21:58;1.73;;;1.63;;
15677;SDS011;7939;50.814;6.368;2023-08-08T13:24:24;4.35;;;1.83;;
15677;SDS011;7939;50.814;6.368;2023-08-08T13:26:52;6.05;;;2.20;;
15677;SDS011;7939;50.814;6.368;2023-08-08T13:29:19;3.97;;;2.03;;
15677;SDS011;7939;50.814;6.368;2023-08-08T13:31:45;5.43;;;2.00;;
15677;SDS011;7939;50.814;6.368;2023-08-08T13:34:12;4.70;;;2.20;;
15677;SDS011;7939;50.814;6.368;2023-08-08T13:36:39;5.57;;;1.90;;
15677;SDS011;7939;50.814;6.368;2023-08-08T13:39:06;5.03;;;1.90;;
15677;SDS011;7939;50.814;6.368;2023-08-08T13:41:32;4.28;;;1.83;;
15677;SDS011;7939;50.814;6.368;2023-08-08T13:44:00;5.05;;;2.10;;
15677;SDS011;7939;50.814;6.368;2023-08-08T13:46:27;5.63;;;2.20;;
15677;SDS011;7939;50.814;6.368;2023-08-08T13:48:54;4.80;;;1.85;;
15677;SDS011;7939;50.814;6.368;2023-08-08T13:51:21;2.60;;;1.73;;
15677;SDS011;7939;50.814;6.368;2023-08-08T13:53:47;3.33;;;1.85;;
15677;SDS011;7939;50.814;6.368;2023-08-08T13:56:14;3.95;;;1.98;;
15677;SDS011;7939;50.814;6.368;2023-08-08T13:58:41;3.30;;;1.90;;
15677;SDS011;7939;50.814;6.368;2023-08-08T14:01:09;3.92;;;1.60;;
15677;SDS011;7939;50.814;6.368;2023-08-08T14:03:36;3.08;;;1.70;;
15677;SDS011;7939;50.814;6.368;2023-08-08T14:06:03;3.38;;;1.75;;
15677;SDS011;7939;50.814;6.368;2023-08-08T14:08:31;5.75;;;2.22;;
15677;SDS011;7939;50.814;6.368;2023-08-08T14:10:58;6.00;;;1.73;;
15677;SDS011;7939;50.814;6.368;2023-08-08T14:13:24;6.72;;;2.35;;
15677;SDS011;7939;50.814;6.368;2023-08-08T14:15:51;4.20;;;1.80;;
15677;SDS011;7939;50.814;6.368;2023-08-08T14:18:19;3.85;;;1.88;;
15677;SDS011;7939;50.814;6.368;2023-08-08T14:20:45;2.65;;;1.50;;
15677;SDS011;7939;50.814;6.368;2023-08-08T14:23:12;2.22;;;1.65;;
15677;SDS011;7939;50.814;6.368;2023-08-08T14:25:39;3.63;;;1.52;;
15677;SDS011;7939;50.814;6.368;2023-08-08T14:28:05;7.22;;;1.70;;
15677;SDS011;7939;50.814;6.368;2023-08-08T14:30:32;6.15;;;2.55;;
15677;SDS011;7939;50.814;6.368;2023-08-08T14:32:58;3.72;;;1.55;;
15677;SDS011;7939;50.814;6.368;2023-08-08T14:35:26;5.47;;;1.40;;
15677;SDS011;7939;50.814;6.368;2023-08-08T14:37:53;3.38;;;1.65;;
15677;SDS011;7939;50.814;6.368;2023-08-08T14:40:20;3.97;;;1.70;;
15677;SDS011;7939;50.814;6.368;2023-08-08T14:42:46;7.47;;;1.88;;
15677;SDS011;7939;50.814;6.368;2023-08-08T14:45:13;5.10;;;1.92;;
15677;SDS011;7939;50.814;6.368;2023-08-08T14:47:40;7.32;;;1.90;;
15677;SDS011;7939;50.814;6.368;2023-08-08T14:50:07;6.65;;;2.10;;
15677;SDS011;7939;50.814;6.368;2023-08-08T14:52:35;5.85;;;2.00;;
15677;SDS011;7939;50.814;6.368;2023-08-08T14:55:02;4.28;;;2.30;;
15677;SDS011;7939;50.814;6.368;2023-08-08T14:57:29;5.38;;;1.85;;
15677;SDS011;7939;50.814;6.368;2023-08-08T14:59:57;4.72;;;2.00;;